createdAt,value
2019-06-18T00:01:01.194Z,93.70
2019-06-18T00:03:31.212Z,93.50
2019-06-18T00:06:00.861Z,92.90
2019-06-18T00:08:30.975Z,93.60
2019-06-18T00:11:01.617Z,94.10
2019-06-18T00:13:31.312Z,93.80
2019-06-18T00:16:01.482Z,94.20
2019-06-18T00:18:31.267Z,93.70
2019-06-18T00:21:01.271Z,94.00
2019-06-18T00:23:30.927Z,94.70
2019-06-18T00:26:01.307Z,94.40
2019-06-18T00:28:30.953Z,94.20
2019-06-18T00:31:01.131Z,94.90
2019-06-18T00:33:30.813Z,94.90
2019-06-18T00:36:01.212Z,95.00
2019-06-18T00:38:31.231Z,94.90
2019-06-18T00:41:00.849Z,95.10
2019-06-18T00:43:30.298Z,95.10
2019-06-18T00:46:04.134Z,95.30
2019-06-18T00:48:31.429Z,95.50
2019-06-18T00:51:01.091Z,95.40
2019-06-18T00:53:30.532Z,95.50
2019-06-18T00:55:59.982Z,95.40
2019-06-18T00:58:29.445Z,95.50
2019-06-18T01:00:59.063Z,95.70
2019-06-18T01:03:28.545Z,95.60
2019-06-18T01:05:57.996Z,95.70
2019-06-18T01:08:28.176Z,95.80
2019-06-18T01:10:57.705Z,95.90
2019-06-18T01:13:27.503Z,95.70
2019-06-18T01:15:58.596Z,95.90
2019-06-18T01:18:28.087Z,96.00
2019-06-18T01:20:57.573Z,96.00
2019-06-18T01:23:27.005Z,96.10
2019-06-18T01:25:56.484Z,96.00
2019-06-18T01:28:25.980Z,96.40
2019-06-18T01:30:55.432Z,96.20
2019-06-18T01:33:24.894Z,96.30
2019-06-18T01:35:54.433Z,96.60
2019-06-18T01:38:24.048Z,96.70
2019-06-18T01:40:53.526Z,97.10
2019-06-18T01:43:23.113Z,96.40
2019-06-18T01:45:52.703Z,96.30
2019-06-18T01:48:22.463Z,95.70
2019-06-18T01:50:53.650Z,96.40
2019-06-18T01:53:23.285Z,96.90
2019-06-18T01:55:53.075Z,97.00
2019-06-18T01:58:22.860Z,96.50
2019-06-18T02:00:53.140Z,97.20
2019-06-18T02:03:23.981Z,97.30
2019-06-18T02:05:53.583Z,96.70
2019-06-18T02:08:23.081Z,97.00
2019-06-18T02:10:52.905Z,96.10
2019-06-18T02:13:23.261Z,97.50
2019-06-18T02:15:53.182Z,97.10
2019-06-18T02:18:23.516Z,97.40
2019-06-18T02:20:55.207Z,96.60
2019-06-18T02:23:24.118Z,98.00
2019-06-18T02:25:53.744Z,98.00
2019-06-18T02:28:23.218Z,97.90
2019-06-18T02:30:54.943Z,98.20
2019-06-18T02:33:24.443Z,98.20
2019-06-18T02:35:54.083Z,98.20
2019-06-18T02:38:23.658Z,98.20
2019-06-18T02:40:53.144Z,98.20
2019-06-18T02:43:22.959Z,98.40
2019-06-18T02:45:53.420Z,98.40
2019-06-18T02:48:23.243Z,98.40
2019-06-18T02:50:53.204Z,97.60
2019-06-18T02:53:23.200Z,98.40
2019-06-18T02:55:53.125Z,98.00
2019-06-18T02:58:22.855Z,97.60
2019-06-18T03:01:23.454Z,98.00
2019-06-18T03:03:53.556Z,97.70
2019-06-18T03:06:23.522Z,97.80
2019-06-18T03:08:53.340Z,98.60
2019-06-18T03:11:22.841Z,99.50
2019-06-18T03:13:53.111Z,98.40
2019-06-18T03:16:23.100Z,99.10
2019-06-18T03:18:53.250Z,98.20
2019-06-18T03:21:22.877Z,97.90
2019-06-18T03:23:53.469Z,98.90
2019-06-18T03:26:23.071Z,98.50
2019-06-18T03:28:52.520Z,98.20
2019-06-18T03:31:24.237Z,98.90
2019-06-18T03:33:55.271Z,98.90
2019-06-18T03:36:24.334Z,98.30
2019-06-18T03:38:53.808Z,98.80
2019-06-18T03:41:23.239Z,98.40
2019-06-18T03:43:52.904Z,99.70
2019-06-18T03:46:22.927Z,98.70
2019-06-18T03:48:53.188Z,98.90
2019-06-18T03:51:23.254Z,99.70
2019-06-18T03:53:53.544Z,99.00
2019-06-18T03:56:22.986Z,99.80
2019-06-18T03:58:52.466Z,99.50
2019-06-18T04:01:37.677Z,99.50
2019-06-18T04:04:07.204Z,99.60
2019-06-18T04:06:36.751Z,98.70
2019-06-18T04:09:09.927Z,99.90
2019-06-18T04:11:39.425Z,99.90
2019-06-18T04:14:09.049Z,99.50
2019-06-18T04:16:38.498Z,99.90
2019-06-18T04:19:07.958Z,99.90
2019-06-18T04:21:37.425Z,99.10
2019-06-18T04:24:06.842Z,99.90
2019-06-18T04:26:36.309Z,99.90
2019-06-18T04:29:05.842Z,99.90
2019-06-18T04:31:35.237Z,99.90
2019-06-18T04:34:05.633Z,99.90
2019-06-18T04:36:35.153Z,99.90
2019-06-18T04:39:06.208Z,99.90
2019-06-18T04:41:35.637Z,99.90
2019-06-18T04:44:05.191Z,99.90
2019-06-18T04:46:34.618Z,99.90
2019-06-18T04:49:04.171Z,99.90
2019-06-18T04:51:33.621Z,99.90
2019-06-18T04:54:03.439Z,99.90
2019-06-18T04:56:33.462Z,99.90
2019-06-18T04:59:03.440Z,99.80
2019-06-18T05:01:33.190Z,99.70
2019-06-18T05:04:03.681Z,99.40
2019-06-18T05:06:33.404Z,99.80
2019-06-18T05:09:03.388Z,99.90
2019-06-18T05:11:33.899Z,99.00
2019-06-18T05:14:03.980Z,99.90
2019-06-18T05:16:33.515Z,99.50
2019-06-18T05:19:04.215Z,99.80
2019-06-18T05:21:32.726Z,98.50
2019-06-18T05:24:02.862Z,98.80
2019-06-18T05:26:32.742Z,98.70
2019-06-18T05:29:02.950Z,99.20
2019-06-18T05:31:33.731Z,99.20
2019-06-18T05:34:03.031Z,98.90
2019-06-18T05:36:32.825Z,99.00
2019-06-18T05:39:03.232Z,99.60
2019-06-18T05:41:32.749Z,99.40
2019-06-18T05:44:02.980Z,99.00
2019-06-18T05:46:32.959Z,99.20
2019-06-18T05:49:03.536Z,98.00
2019-06-18T05:51:33.225Z,98.70
2019-06-18T05:54:02.932Z,98.10
2019-06-18T05:56:33.746Z,99.60
2019-06-18T05:59:03.460Z,98.40
2019-06-18T06:01:33.676Z,99.10
2019-06-18T06:04:02.753Z,99.10
2019-06-18T06:06:33.014Z,98.70
2019-06-18T06:09:02.937Z,99.10
2019-06-18T06:11:33.055Z,98.90
2019-06-18T06:14:03.276Z,98.40
2019-06-18T06:16:33.638Z,98.10
2019-06-18T06:19:13.865Z,98.20
2019-06-18T06:21:33.642Z,98.30
2019-06-18T06:24:03.051Z,98.70
2019-06-18T06:26:33.428Z,98.50
2019-06-18T06:29:03.439Z,98.00
2019-06-18T06:31:33.000Z,98.20
2019-06-18T06:34:03.090Z,98.40
2019-06-18T06:36:33.566Z,98.40
2019-06-18T06:39:03.998Z,98.20
2019-06-18T06:41:33.549Z,98.20
2019-06-18T06:44:03.200Z,98.30
2019-06-18T06:46:33.349Z,97.60
2019-06-18T06:49:04.298Z,98.00
2019-06-18T06:51:33.749Z,98.00
2019-06-18T06:54:03.493Z,97.90
2019-06-18T06:56:33.328Z,97.80
2019-06-18T06:59:03.548Z,97.20
2019-06-18T07:01:33.069Z,97.40
2019-06-18T07:04:03.448Z,97.10
2019-06-18T07:06:33.038Z,97.60
2019-06-18T07:09:03.425Z,97.00
2019-06-18T07:11:33.835Z,97.50
2019-06-18T07:14:05.160Z,97.40
2019-06-18T07:16:36.220Z,97.50
2019-06-18T07:19:05.836Z,96.40
2019-06-18T07:21:35.285Z,96.60
2019-06-18T07:24:05.255Z,96.50
2019-06-18T07:26:34.705Z,96.80
2019-06-18T07:29:04.231Z,96.60
2019-06-18T07:31:33.652Z,96.90
2019-06-18T07:34:04.859Z,96.10
2019-06-18T07:36:34.288Z,96.50
2019-06-18T07:39:04.528Z,96.20
2019-06-18T07:41:34.097Z,96.30
2019-06-18T07:44:03.548Z,95.40
2019-06-18T07:46:33.749Z,95.60
2019-06-18T07:49:03.492Z,94.60
2019-06-18T07:51:33.565Z,95.10
2019-06-18T07:54:03.973Z,95.40
2019-06-18T07:56:33.941Z,94.40
2019-06-18T07:59:03.561Z,95.20
2019-06-18T08:01:33.836Z,95.40
2019-06-18T08:04:03.436Z,94.90
2019-06-18T08:06:33.624Z,94.20
2019-06-18T08:09:03.565Z,93.80
2019-06-18T08:11:33.798Z,94.10
2019-06-18T08:14:23.254Z,94.50
2019-06-18T08:16:53.774Z,94.70
2019-06-18T08:19:27.618Z,94.00
2019-06-18T08:22:07.106Z,94.40
2019-06-18T08:32:38.788Z,93.90
2019-06-18T08:35:08.747Z,93.50
2019-06-18T08:37:38.962Z,93.10
2019-06-18T08:40:18.582Z,92.40
2019-06-18T08:42:48.155Z,93.60
2019-06-18T08:45:17.777Z,92.50
2019-06-18T08:47:47.205Z,92.40
2019-06-18T08:50:16.955Z,92.60
2019-06-18T08:52:46.403Z,93.20
2019-06-18T08:55:16.377Z,91.20
2019-06-18T08:57:45.838Z,91.40
2019-06-18T09:00:15.923Z,92.70
2019-06-18T09:02:45.374Z,92.40
2019-06-18T09:05:15.063Z,91.50
2019-06-18T09:07:44.482Z,91.10
2019-06-18T09:10:14.626Z,92.60
2019-06-18T09:12:44.077Z,91.10
2019-06-18T09:15:14.255Z,91.40
2019-06-18T09:17:43.821Z,90.50
2019-06-18T09:20:14.385Z,91.00
2019-06-18T09:22:43.824Z,90.90
2019-06-18T09:25:13.472Z,90.60
2019-06-18T09:27:43.810Z,91.10
2019-06-18T09:30:14.098Z,90.80
2019-06-18T09:32:44.261Z,90.80
2019-06-18T09:35:14.489Z,90.60
2019-06-18T09:37:43.952Z,91.10
2019-06-18T09:40:13.566Z,90.20
2019-06-18T09:42:43.046Z,89.40
2019-06-18T09:45:13.743Z,90.00
2019-06-18T09:47:43.242Z,90.40
2019-06-18T09:50:13.682Z,90.40
2019-06-18T09:52:43.222Z,88.10
2019-06-18T09:55:14.691Z,89.90
2019-06-18T09:57:44.148Z,90.00
2019-06-18T10:00:14.973Z,88.10
2019-06-18T10:02:44.575Z,90.00
2019-06-18T10:05:14.784Z,87.40
2019-06-18T10:07:44.347Z,86.60
2019-06-18T10:10:14.393Z,89.20
2019-06-18T10:12:43.838Z,86.20
2019-06-18T10:15:14.316Z,87.80
2019-06-18T10:17:43.755Z,89.10
2019-06-18T10:20:13.392Z,85.80
2019-06-18T10:22:43.254Z,86.50
2019-06-18T10:25:14.034Z,87.10
2019-06-18T10:27:43.484Z,86.60
2019-06-18T10:30:14.249Z,87.80
2019-06-18T10:32:43.749Z,86.50
2019-06-18T10:35:13.901Z,86.80
2019-06-18T10:37:43.962Z,85.90
2019-06-18T10:40:15.503Z,82.80
2019-06-18T10:42:44.948Z,82.30
2019-06-18T10:45:14.773Z,81.80
2019-06-18T10:47:44.204Z,81.50
2019-06-18T10:50:14.701Z,81.90
2019-06-18T10:52:44.256Z,85.70
2019-06-18T10:55:16.318Z,84.00
2019-06-18T10:57:45.773Z,82.30
2019-06-18T11:00:17.154Z,83.40
2019-06-18T11:02:46.604Z,84.20
2019-06-18T11:05:16.569Z,82.70
2019-06-18T11:07:59.687Z,85.20
2019-06-18T11:10:18.003Z,83.60
2019-06-18T11:12:47.497Z,84.00
2019-06-18T11:15:17.012Z,81.80
2019-06-18T11:17:46.532Z,81.30
2019-06-18T11:20:16.954Z,83.20
2019-06-18T11:22:46.416Z,81.30
2019-06-18T11:25:17.400Z,81.90
2019-06-18T11:27:46.936Z,82.90
2019-06-18T11:30:17.296Z,83.20
2019-06-18T11:32:46.740Z,82.90
2019-06-18T11:35:17.114Z,80.70
2019-06-18T11:37:46.590Z,77.70
2019-06-18T11:40:16.474Z,78.50
2019-06-18T11:42:46.029Z,78.00
2019-06-18T11:45:16.306Z,81.00
2019-06-18T11:47:45.787Z,78.50
2019-06-18T11:50:17.219Z,78.90
2019-06-18T11:52:46.671Z,79.10
2019-06-18T11:55:17.629Z,77.50
2019-06-18T11:57:47.166Z,77.90
2019-06-18T12:00:17.210Z,77.90
2019-06-18T12:02:46.765Z,80.40
2019-06-18T12:05:16.689Z,77.70
2019-06-18T12:07:46.198Z,78.30
2019-06-18T12:10:16.739Z,77.70
2019-06-18T12:12:46.191Z,78.90
2019-06-18T12:15:17.282Z,78.40
2019-06-18T12:17:47.029Z,78.30
2019-06-18T12:20:36.411Z,79.70
2019-06-18T12:23:05.934Z,79.60
2019-06-18T12:25:35.379Z,82.20
2019-06-18T12:28:05.026Z,80.00
2019-06-18T12:30:34.514Z,78.30
2019-06-18T12:33:04.357Z,80.50
2019-06-18T12:35:33.798Z,77.80
2019-06-18T12:38:03.874Z,76.70
2019-06-18T12:40:33.375Z,77.10
2019-06-18T12:43:03.271Z,78.30
2019-06-18T12:45:33.745Z,79.20
2019-06-18T12:48:04.434Z,76.70
2019-06-18T12:50:34.113Z,78.20
2019-06-18T12:53:09.734Z,73.90
2019-06-18T12:55:34.709Z,78.90
2019-06-18T12:58:04.170Z,74.50
2019-06-18T13:00:33.856Z,74.60
2019-06-18T13:03:03.923Z,75.30
2019-06-18T13:05:33.665Z,75.40
2019-06-18T13:08:03.483Z,73.70
2019-06-18T13:10:34.470Z,73.90
2019-06-18T13:13:06.382Z,74.70
2019-06-18T13:15:35.445Z,75.90
2019-06-18T13:18:05.042Z,74.60
2019-06-18T13:20:34.514Z,74.40
2019-06-18T13:23:19.854Z,75.20
2019-06-18T13:25:36.283Z,74.70
2019-06-18T13:28:06.117Z,74.50
2019-06-18T13:30:35.646Z,75.20
2019-06-18T13:33:05.081Z,74.50
2019-06-18T13:35:34.570Z,75.60
2019-06-18T13:38:05.649Z,74.20
2019-06-18T13:40:35.386Z,75.40
2019-06-18T13:43:04.903Z,75.70
2019-06-18T13:45:35.987Z,73.40
2019-06-18T13:48:06.126Z,76.50
2019-06-18T13:50:35.585Z,75.90
2019-06-18T13:53:09.589Z,72.20
2019-06-18T13:55:36.337Z,75.50
2019-06-18T13:58:05.856Z,75.60
2019-06-18T14:00:35.305Z,76.00
2019-06-18T14:03:05.750Z,72.00
2019-06-18T14:05:35.180Z,73.90
2019-06-18T14:08:04.906Z,71.10
2019-06-18T14:10:34.333Z,70.70
2019-06-18T14:13:03.846Z,73.00
2019-06-18T14:15:33.410Z,71.30
2019-06-18T14:18:03.258Z,72.10
2019-06-18T14:20:32.974Z,72.40
2019-06-18T14:23:03.389Z,69.70
2019-06-18T14:25:32.879Z,69.90
2019-06-18T14:28:03.097Z,70.50
2019-06-18T14:30:32.088Z,73.40
2019-06-18T14:33:02.984Z,74.50
2019-06-18T14:35:34.192Z,72.40
2019-06-18T14:38:01.679Z,72.40
2019-06-18T14:40:33.925Z,71.30
2019-06-18T14:43:03.472Z,71.90
2019-06-18T14:45:34.265Z,71.40
2019-06-18T14:48:04.541Z,70.90
2019-06-18T14:50:32.446Z,73.40
2019-06-18T14:53:03.464Z,71.20
2019-06-18T14:55:33.083Z,73.20
2019-06-18T14:58:02.965Z,70.20
2019-06-18T15:00:33.567Z,70.50
2019-06-18T15:03:03.144Z,73.50
2019-06-18T15:05:32.877Z,74.50
2019-06-18T15:08:02.971Z,72.00
2019-06-18T15:10:33.500Z,72.70
2019-06-18T15:13:03.225Z,73.00
2019-06-18T15:15:33.746Z,71.50
2019-06-18T15:18:05.474Z,71.60
2019-06-18T15:20:34.957Z,73.00
2019-06-18T15:23:04.437Z,71.40
2019-06-18T15:25:33.888Z,71.40
2019-06-18T15:28:03.356Z,70.80
2019-06-18T15:30:33.215Z,73.50
2019-06-18T15:33:03.132Z,70.60
2019-06-18T15:35:33.095Z,69.30
2019-06-18T15:38:03.233Z,70.80
2019-06-18T15:40:32.995Z,72.70
2019-06-18T15:43:03.842Z,73.10
2019-06-18T15:45:35.235Z,71.00
2019-06-18T15:48:04.956Z,70.80
2019-06-18T15:50:34.405Z,68.70
2019-06-18T15:53:04.231Z,67.60
2019-06-18T15:55:33.712Z,69.90
2019-06-18T15:58:03.803Z,69.00
2019-06-18T16:00:40.662Z,68.20
2019-06-18T16:03:04.833Z,68.60
2019-06-18T16:05:34.283Z,67.80
2019-06-18T16:08:05.118Z,66.90
2019-06-18T16:10:34.876Z,67.90
2019-06-18T16:13:04.611Z,68.70
2019-06-18T16:15:34.111Z,67.40
2019-06-18T16:18:03.933Z,65.80
2019-06-18T16:20:33.417Z,65.10
2019-06-18T16:23:03.317Z,65.60
2019-06-18T16:25:33.543Z,63.80
2019-06-18T16:28:03.694Z,66.80
2019-06-18T16:30:33.268Z,67.30
2019-06-18T16:33:04.486Z,67.70
2019-06-18T16:35:34.230Z,66.80
2019-06-18T16:38:03.713Z,68.10
2019-06-18T16:40:33.426Z,65.40
2019-06-18T16:43:03.514Z,65.80
2019-06-18T16:45:33.083Z,65.20
2019-06-18T16:48:03.475Z,65.50
2019-06-18T16:50:33.595Z,65.40
2019-06-18T16:53:03.421Z,68.00
2019-06-18T16:55:37.721Z,68.00
2019-06-18T16:58:04.557Z,65.00
2019-06-18T17:00:34.118Z,65.00
2019-06-18T17:03:04.255Z,64.20
2019-06-18T17:05:33.758Z,66.20
2019-06-18T17:08:04.911Z,65.30
2019-06-18T17:10:34.582Z,68.20
2019-06-18T17:13:04.083Z,63.80
2019-06-18T17:15:33.546Z,65.70
2019-06-18T17:18:03.250Z,64.80
2019-06-18T17:20:33.477Z,63.70
2019-06-18T17:23:03.582Z,64.20
2019-06-18T17:25:46.128Z,65.20
2019-06-18T17:28:03.556Z,65.00
2019-06-18T17:30:32.585Z,65.60
2019-06-18T17:35:43.015Z,64.80
2019-06-18T17:38:12.632Z,63.50
2019-06-18T17:40:43.130Z,66.10
2019-06-18T17:43:12.514Z,63.10
2019-06-18T17:45:42.268Z,64.70
2019-06-18T17:48:12.533Z,63.30
2019-06-18T17:50:42.664Z,65.20
2019-06-18T17:53:13.037Z,61.90
2019-06-18T17:55:43.047Z,63.70
2019-06-18T17:58:13.640Z,63.70
2019-06-18T18:00:43.417Z,64.60
2019-06-18T18:03:12.897Z,64.50
2019-06-18T18:05:44.038Z,64.20
2019-06-18T18:08:13.668Z,67.30
2019-06-18T18:10:43.443Z,66.70
2019-06-18T18:13:13.072Z,65.40
2019-06-18T18:15:42.690Z,67.10
2019-06-18T18:18:12.832Z,66.80
2019-06-18T18:20:42.530Z,67.60
2019-06-18T18:23:12.383Z,67.30
2019-06-18T18:25:43.288Z,67.50
2019-06-18T18:28:13.439Z,68.20
2019-06-18T18:30:43.123Z,69.10
2019-06-18T18:33:12.620Z,69.30
2019-06-18T18:35:42.067Z,69.60
2019-06-18T18:38:12.789Z,69.60
2019-06-18T18:40:43.285Z,70.00
2019-06-18T18:43:12.906Z,69.70
2019-06-18T18:45:43.946Z,70.70
2019-06-18T18:48:13.430Z,71.10
2019-06-18T18:50:43.283Z,71.40
2019-06-18T18:53:13.815Z,71.20
2019-06-18T18:55:43.833Z,72.10
2019-06-18T18:58:33.579Z,72.30
2019-06-18T19:01:04.176Z,71.80
2019-06-18T19:03:33.672Z,73.10
2019-06-18T19:06:03.838Z,73.40
2019-06-18T19:08:33.572Z,73.60
2019-06-18T19:11:03.022Z,73.70
2019-06-18T19:13:32.529Z,73.70
2019-06-18T19:16:02.908Z,73.90
2019-06-18T19:18:32.885Z,73.70
2019-06-18T19:21:03.073Z,74.10
2019-06-18T19:23:32.720Z,74.60
2019-06-18T19:26:02.560Z,74.70
2019-06-18T19:28:32.508Z,74.90
2019-06-18T19:31:03.467Z,75.00
2019-06-18T19:33:33.204Z,75.10
2019-06-18T19:36:03.327Z,75.30
2019-06-18T19:38:32.909Z,75.40
2019-06-18T19:41:02.450Z,75.60
2019-06-18T19:43:31.901Z,75.70
2019-06-18T19:46:02.729Z,76.10
2019-06-18T19:48:33.435Z,76.40
2019-06-18T19:51:03.153Z,76.50
2019-06-18T19:53:32.726Z,76.80
2019-06-18T19:56:02.869Z,77.20
2019-06-18T19:58:32.804Z,77.70
2019-06-18T20:01:03.404Z,77.60
2019-06-18T20:03:33.749Z,78.10
2019-06-18T20:06:03.488Z,78.30
2019-06-18T20:08:32.937Z,78.40
2019-06-18T20:11:02.999Z,78.70
2019-06-18T20:13:33.721Z,79.20
2019-06-18T20:16:03.579Z,79.50
2019-06-18T20:18:33.329Z,79.90
2019-06-18T20:21:02.954Z,80.20
2019-06-18T20:23:33.445Z,80.40
2019-06-18T20:26:03.037Z,80.70
2019-06-18T20:28:33.061Z,80.90
2019-06-18T20:31:03.288Z,81.20
2019-06-18T20:33:33.422Z,81.60
2019-06-18T20:36:03.025Z,81.90
2019-06-18T20:38:32.750Z,82.10
2019-06-18T20:41:03.609Z,82.30
2019-06-18T20:43:33.301Z,82.70
2019-06-18T20:46:02.743Z,82.80
2019-06-18T20:48:33.166Z,82.90
2019-06-18T20:51:02.823Z,83.10
2019-06-18T20:53:33.422Z,83.70
2019-06-18T20:56:03.427Z,83.90
2019-06-18T20:58:33.093Z,84.10
2019-06-18T21:01:02.848Z,84.70
2019-06-18T21:03:32.995Z,85.10
2019-06-18T21:06:02.875Z,85.10
2019-06-18T21:08:32.830Z,85.60
2019-06-18T21:11:03.307Z,85.90
2019-06-18T21:13:33.830Z,85.80
2019-06-18T21:16:06.866Z,86.20
2019-06-18T21:18:34.679Z,87.20
2019-06-18T21:21:04.571Z,86.30
2019-06-18T21:23:34.003Z,87.00
2019-06-18T21:26:03.496Z,87.40
2019-06-18T21:28:32.937Z,87.60
2019-06-18T21:31:02.575Z,88.10
2019-06-18T21:33:33.372Z,88.10
2019-06-18T21:36:04.089Z,88.20
2019-06-18T21:38:33.666Z,88.80
2019-06-18T21:41:03.174Z,89.10
2019-06-18T21:43:32.889Z,88.80
2019-06-18T21:46:02.740Z,89.60
2019-06-18T21:48:32.569Z,89.80
2019-06-18T21:51:02.563Z,90.20
2019-06-18T21:53:34.644Z,90.30
2019-06-18T21:56:03.811Z,90.40
2019-06-18T21:58:33.281Z,90.40
2019-06-18T22:01:04.462Z,90.50
2019-06-18T22:03:33.997Z,90.90
2019-06-18T22:06:03.451Z,91.10
2019-06-18T22:08:33.054Z,91.20
2019-06-18T22:11:02.968Z,91.10
2019-06-18T22:13:33.553Z,91.30
2019-06-18T22:16:03.272Z,91.50
2019-06-18T22:18:34.154Z,91.50
2019-06-18T22:21:05.218Z,91.50
2019-06-18T22:23:34.739Z,91.60
2019-06-18T22:26:04.257Z,91.80
2019-06-18T22:28:38.103Z,91.80
2019-06-18T22:31:05.144Z,91.80
2019-06-18T22:33:34.611Z,92.00
2019-06-18T22:36:04.079Z,92.10
2019-06-18T22:38:33.545Z,92.10
2019-06-18T22:41:03.017Z,92.20
2019-06-18T22:43:32.478Z,92.30
2019-06-18T22:46:03.157Z,92.30
2019-06-18T22:48:33.249Z,92.30
2019-06-18T22:51:03.631Z,92.50
2019-06-18T22:53:33.484Z,92.60
2019-06-18T22:56:03.335Z,92.60
2019-06-18T22:58:48.550Z,93.20
2019-06-18T23:01:04.317Z,92.70
2019-06-18T23:03:33.771Z,92.70
2019-06-18T23:06:03.259Z,92.80
2019-06-18T23:08:32.865Z,92.90
2019-06-18T23:11:02.777Z,92.90
2019-06-18T23:13:33.320Z,93.00
2019-06-18T23:16:03.621Z,93.00
2019-06-18T23:18:33.561Z,93.20
2019-06-18T23:21:03.539Z,93.20
2019-06-18T23:23:33.232Z,93.40
2019-06-18T23:26:03.242Z,93.40
2019-06-18T23:28:33.905Z,93.50
2019-06-18T23:31:03.577Z,93.50
2019-06-18T23:33:33.175Z,93.50
2019-06-18T23:36:02.665Z,93.70
2019-06-18T23:38:32.656Z,93.60
2019-06-18T23:41:02.928Z,93.80
2019-06-18T23:43:32.983Z,94.00
2019-06-18T23:46:03.104Z,94.10
2019-06-18T23:48:33.119Z,94.10
2019-06-18T23:51:03.102Z,94.20
2019-06-18T23:53:33.049Z,94.20
2019-06-18T23:56:03.067Z,94.20
2019-06-18T23:58:34.080Z,94.40
